createdAt,value
2024-02-19T00:00:13.958Z,6.20
2024-02-19T00:05:14.072Z,7.47
2024-02-19T00:10:12.401Z,6.83
2024-02-19T00:15:11.397Z,5.57
2024-02-19T00:20:10.598Z,7.20
2024-02-19T00:25:10.998Z,6.00
2024-02-19T00:30:10.366Z,5.50
2024-02-19T00:35:09.270Z,5.33
2024-02-19T00:40:10.484Z,5.50
2024-02-19T00:45:09.470Z,5.30
2024-02-19T00:50:08.705Z,5.53
2024-02-19T00:55:07.448Z,4.50
2024-02-19T01:00:08.432Z,5.03
2024-02-19T01:05:07.411Z,4.53
2024-02-19T01:10:06.346Z,4.77
2024-02-19T01:15:06.625Z,4.00
2024-02-19T01:20:05.919Z,4.43
2024-02-19T01:25:04.349Z,4.10
2024-02-19T01:30:02.884Z,4.90
2024-02-19T01:35:02.825Z,4.10
2024-02-19T01:40:01.179Z,5.00
2024-02-19T01:44:59.460Z,4.30
2024-02-19T01:49:57.831Z,4.00
2024-02-19T01:54:57.957Z,4.33
2024-02-19T01:59:56.886Z,3.70
2024-02-19T02:04:55.594Z,3.80
2024-02-19T02:09:54.085Z,3.53
2024-02-19T02:14:53.684Z,3.37
2024-02-19T02:19:52.196Z,3.87
2024-02-19T02:24:50.543Z,3.70
2024-02-19T02:29:50.144Z,3.60
2024-02-19T02:34:48.813Z,3.57
2024-02-19T02:39:47.139Z,4.07
2024-02-19T02:44:45.413Z,3.27
2024-02-19T02:49:45.018Z,4.33
2024-02-19T02:54:43.135Z,3.57
2024-02-19T02:59:41.365Z,3.70
2024-02-19T03:04:39.705Z,4.03
2024-02-19T03:09:39.398Z,3.77
2024-02-19T03:14:37.767Z,4.03
2024-02-19T03:19:36.098Z,3.67
2024-02-19T03:24:34.339Z,3.90
2024-02-19T03:29:34.047Z,3.67
2024-02-19T03:34:32.378Z,3.70
2024-02-19T03:39:30.781Z,3.40
2024-02-19T03:44:28.985Z,3.00
2024-02-19T03:49:29.098Z,3.17
2024-02-19T03:54:27.438Z,3.00
2024-02-19T03:59:25.673Z,2.60
2024-02-19T04:04:24.002Z,2.50
2024-02-19T04:09:23.692Z,2.20
2024-02-19T04:14:21.940Z,1.80
2024-02-19T04:19:20.218Z,1.27
2024-02-19T04:24:19.020Z,1.50
2024-02-19T04:29:18.592Z,1.07
2024-02-19T04:34:17.011Z,1.03
2024-02-19T04:39:15.348Z,1.13
2024-02-19T04:44:13.707Z,1.33
2024-02-19T04:49:13.360Z,1.10
2024-02-19T04:54:11.676Z,1.50
2024-02-19T04:59:09.877Z,1.00
2024-02-19T05:04:08.192Z,1.17
2024-02-19T05:09:09.131Z,1.20
2024-02-19T05:14:07.345Z,1.50
2024-02-19T05:19:05.755Z,1.67
2024-02-19T05:24:04.072Z,1.80
2024-02-19T05:29:05.319Z,1.70
2024-02-19T05:34:05.293Z,1.93
2024-02-19T05:39:03.682Z,2.00
2024-02-19T05:44:03.261Z,2.77
2024-02-19T05:49:01.558Z,1.40
2024-02-19T05:53:59.904Z,1.30
2024-02-19T05:58:58.137Z,0.90
2024-02-19T06:03:57.783Z,0.90
2024-02-19T06:08:56.043Z,0.70
2024-02-19T06:13:54.517Z,1.00
2024-02-19T06:18:53.809Z,0.80
2024-02-19T06:23:53.547Z,0.60
2024-02-19T06:28:51.899Z,0.60
2024-02-19T06:33:50.251Z,0.50
2024-02-19T06:38:48.584Z,0.50
2024-02-19T06:43:48.183Z,0.60
2024-02-19T06:48:49.244Z,0.60
2024-02-19T06:53:48.471Z,0.60
2024-02-19T06:58:48.310Z,0.60
2024-02-19T07:03:46.671Z,0.80
2024-02-19T07:08:45.085Z,0.70
2024-02-19T07:13:44.040Z,0.70
2024-02-19T07:18:43.817Z,0.50
2024-02-19T07:23:42.255Z,0.93
2024-02-19T07:28:40.514Z,1.00
2024-02-19T07:33:38.873Z,0.97
2024-02-19T07:38:38.622Z,1.23
2024-02-19T07:43:38.229Z,1.17
2024-02-19T07:48:36.640Z,1.23
2024-02-19T07:53:35.623Z,0.70
2024-02-19T07:58:35.770Z,0.70
2024-02-19T08:03:34.757Z,0.70
2024-02-19T08:08:33.109Z,0.53
2024-02-19T08:13:31.441Z,0.50
2024-02-19T08:18:31.209Z,0.50
2024-02-19T08:23:29.451Z,0.60
2024-02-19T08:28:27.818Z,0.50
2024-02-19T08:33:26.445Z,0.60
2024-02-19T08:38:26.009Z,0.60
2024-02-19T08:43:24.380Z,0.50
2024-02-19T08:48:22.864Z,0.50
2024-02-19T08:53:21.659Z,0.50
2024-02-19T08:58:21.560Z,0.60
2024-02-19T09:03:20.080Z,1.00
2024-02-19T09:08:18.346Z,0.87
2024-02-19T09:13:17.795Z,0.67
2024-02-19T09:18:17.484Z,0.60
2024-02-19T09:23:17.924Z,0.60
2024-02-19T09:28:16.246Z,0.70
2024-02-19T09:33:15.251Z,0.80
2024-02-19T09:38:15.411Z,0.80
2024-02-19T09:43:13.665Z,1.40
2024-02-19T09:48:12.538Z,1.20
2024-02-19T09:53:12.575Z,1.60
2024-02-19T09:58:12.495Z,1.40
2024-02-19T10:03:10.746Z,1.70
2024-02-19T10:08:14.160Z,1.80
2024-02-19T10:13:14.615Z,1.53
2024-02-19T10:18:17.025Z,1.40
2024-02-19T10:23:16.422Z,1.10
2024-02-19T10:28:16.263Z,1.20
2024-02-19T10:33:14.663Z,1.00
2024-02-19T10:38:13.267Z,0.67
2024-02-19T10:43:12.952Z,0.57
2024-02-19T10:48:13.096Z,0.70
2024-02-19T10:53:12.908Z,0.70
2024-02-19T10:58:16.481Z,0.67
2024-02-19T11:03:16.428Z,0.50
2024-02-19T11:08:22.028Z,0.50
2024-02-19T11:13:22.275Z,0.40
2024-02-19T11:18:22.804Z,0.60
2024-02-19T11:23:21.934Z,0.50
2024-02-19T11:28:20.909Z,0.57
2024-02-19T11:33:19.171Z,0.70
2024-02-19T11:38:18.916Z,1.00
2024-02-19T11:43:18.453Z,0.80
2024-02-19T11:48:16.799Z,0.70
2024-02-19T11:53:15.082Z,1.43
2024-02-19T11:58:14.702Z,1.03
2024-02-19T12:03:15.902Z,1.40
2024-02-19T12:08:14.324Z,1.27
2024-02-19T12:13:14.012Z,1.27
2024-02-19T12:18:12.298Z,1.10
2024-02-19T12:23:10.811Z,0.80
2024-02-19T12:28:09.177Z,1.40
2024-02-19T12:33:09.919Z,0.70
2024-02-19T12:38:09.356Z,0.80
2024-02-19T12:43:08.168Z,0.63
2024-02-19T12:48:09.162Z,0.80
2024-02-19T12:53:07.495Z,0.70
2024-02-19T12:58:05.794Z,0.80
2024-02-19T13:03:04.095Z,0.90
2024-02-19T13:08:03.824Z,0.90
2024-02-19T13:13:02.205Z,1.00
2024-02-19T13:18:01.066Z,0.70
2024-02-19T13:22:59.423Z,0.90
2024-02-19T13:27:59.566Z,0.90
2024-02-19T13:32:58.538Z,0.80
2024-02-19T13:37:58.225Z,0.90
2024-02-19T13:42:56.757Z,0.90
2024-02-19T13:48:01.570Z,1.03
2024-02-19T13:52:59.949Z,0.70
2024-02-19T13:57:58.262Z,0.80
2024-02-19T14:02:56.513Z,1.00
2024-02-19T14:07:56.900Z,1.20
2024-02-19T14:12:55.125Z,0.87
2024-02-19T14:17:54.158Z,0.70
2024-02-19T14:22:52.653Z,0.70
2024-02-19T14:27:55.377Z,0.90
2024-02-19T14:32:54.188Z,1.00
2024-02-19T14:37:52.472Z,0.70
2024-02-19T14:42:52.744Z,0.97
2024-02-19T14:47:51.349Z,0.70
2024-02-19T14:52:49.792Z,0.73
2024-02-19T14:57:49.999Z,0.70
2024-02-19T15:02:51.197Z,0.70
2024-02-19T15:07:55.649Z,0.80
2024-02-19T15:12:55.111Z,0.70
2024-02-19T15:17:54.941Z,1.00
2024-02-19T15:22:53.270Z,0.80
2024-02-19T15:27:51.613Z,0.90
2024-02-19T15:32:51.163Z,0.70
2024-02-19T15:37:50.838Z,1.17
2024-02-19T15:42:49.099Z,0.80
2024-02-19T15:47:47.391Z,0.60
2024-02-19T15:52:54.956Z,0.57
2024-02-19T15:57:59.060Z,0.50
2024-02-19T16:02:57.582Z,0.60
2024-02-19T16:07:55.892Z,0.60
2024-02-19T16:12:54.556Z,0.60
2024-02-19T16:17:54.881Z,0.60
2024-02-19T16:22:55.027Z,0.67
2024-02-19T16:27:54.569Z,1.10
2024-02-19T16:32:54.274Z,0.70
2024-02-19T16:37:52.527Z,0.80
2024-02-19T16:42:50.966Z,0.90
2024-02-19T16:53:06.922Z,1.70
2024-02-19T16:58:05.385Z,1.30
2024-02-19T17:03:03.698Z,1.00
2024-02-19T17:08:03.995Z,1.97
2024-02-19T17:13:04.594Z,1.47
2024-02-19T17:18:04.106Z,1.20
2024-02-19T17:23:03.176Z,1.37
2024-02-19T17:28:02.968Z,1.80
2024-02-19T17:33:01.282Z,1.97
2024-02-19T17:37:59.644Z,1.67
2024-02-19T17:42:57.924Z,1.80
2024-02-19T17:47:59.392Z,1.60
2024-02-19T17:52:57.730Z,1.73
2024-02-19T17:57:55.997Z,2.17
2024-02-19T18:02:54.231Z,2.70
2024-02-19T18:07:53.849Z,2.03
2024-02-19T18:12:52.119Z,2.00
2024-02-19T18:17:51.690Z,1.87
2024-02-19T18:22:50.077Z,2.10
2024-02-19T18:27:52.529Z,2.13
2024-02-19T18:32:51.538Z,2.17
2024-02-19T18:37:50.141Z,2.00
2024-02-19T18:42:50.125Z,2.70
2024-02-19T18:47:49.308Z,2.23
2024-02-19T18:52:47.815Z,2.40
2024-02-19T18:57:46.101Z,3.20
2024-02-19T19:02:45.848Z,2.43
2024-02-19T19:07:44.148Z,2.30
2024-02-19T19:12:42.393Z,2.70
2024-02-19T19:17:40.714Z,3.70
2024-02-19T19:22:40.461Z,2.80
2024-02-19T19:27:38.820Z,4.00
2024-02-19T19:32:37.071Z,4.23
2024-02-19T19:37:35.571Z,4.13
2024-02-19T19:42:36.948Z,4.20
2024-02-19T19:47:35.813Z,4.47
2024-02-19T19:52:35.916Z,4.30
2024-02-19T19:57:35.689Z,4.73
2024-02-19T20:02:34.287Z,4.90
2024-02-19T20:07:32.612Z,5.07
2024-02-19T20:12:30.907Z,4.60
2024-02-19T20:17:30.697Z,5.30
2024-02-19T20:22:31.570Z,5.30
2024-02-19T20:27:30.093Z,5.10
2024-02-19T20:32:28.402Z,4.17
2024-02-19T20:37:28.157Z,5.33
2024-02-19T20:42:26.561Z,6.07
2024-02-19T20:47:25.016Z,4.63
2024-02-19T20:52:23.307Z,5.43
2024-02-19T20:57:25.862Z,5.73
2024-02-19T21:02:24.288Z,5.17
2024-02-19T21:07:23.428Z,5.50
2024-02-19T21:12:23.054Z,5.73
2024-02-19T21:17:21.522Z,6.53
2024-02-19T21:22:21.740Z,5.80
2024-02-19T21:27:20.009Z,6.03
2024-02-19T21:32:20.513Z,6.03
2024-02-19T21:37:18.849Z,6.40
2024-02-19T21:42:22.049Z,6.37
2024-02-19T21:47:24.218Z,6.10
2024-02-19T21:52:22.553Z,5.80
2024-02-19T21:57:20.780Z,5.87
2024-02-19T22:02:19.041Z,5.37
2024-02-19T22:07:18.788Z,7.23
2024-02-19T22:12:17.103Z,6.63
2024-02-19T22:17:15.530Z,6.27
2024-02-19T22:27:31.694Z,5.80
2024-02-19T22:32:30.105Z,7.00
2024-02-19T22:37:28.497Z,7.00
2024-02-19T22:42:26.993Z,7.80
2024-02-19T22:47:26.642Z,7.40
2024-02-19T22:52:25.023Z,7.53
2024-02-19T22:57:23.283Z,7.03
2024-02-19T23:02:21.568Z,7.07
2024-02-19T23:07:21.217Z,7.97
2024-02-19T23:12:19.486Z,8.63
2024-02-19T23:17:18.012Z,7.77
2024-02-19T23:22:16.313Z,9.00
2024-02-19T23:27:15.961Z,8.00
2024-02-19T23:32:14.192Z,8.43
2024-02-19T23:37:12.451Z,7.90
2024-02-19T23:42:11.234Z,8.20
2024-02-19T23:47:11.233Z,7.90
2024-02-19T23:52:09.478Z,8.77
2024-02-19T23:57:08.617Z,8.73
